sensor_id;sensor_type;location;lat;lon;timestamp;P1;durP1;ratioP1;P2;durP2;ratioP2
16393;SDS011;8306;51.128;4.476;2024-02-23T00:02:15;1.93;;;0.57;;
16393;SDS011;8306;51.128;4.476;2024-02-23T00:04:42;2.00;;;0.40;;
16393;SDS011;8306;51.128;4.476;2024-02-23T00:07:08;1.57;;;0.47;;
16393;SDS011;8306;51.128;4.476;2024-02-23T00:09:35;2.83;;;0.77;;
16393;SDS011;8306;51.128;4.476;2024-02-23T00:12:01;2.03;;;0.57;;
16393;SDS011;8306;51.128;4.476;2024-02-23T00:14:28;1.87;;;0.53;;
16393;SDS011;8306;51.128;4.476;2024-02-23T00:16:54;3.90;;;0.57;;
16393;SDS011;8306;51.128;4.476;2024-02-23T00:19:21;1.93;;;0.43;;
16393;SDS011;8306;51.128;4.476;2024-02-23T00:21:47;3.30;;;0.70;;
16393;SDS011;8306;51.128;4.476;2024-02-23T00:24:13;2.30;;;0.60;;
16393;SDS011;8306;51.128;4.476;2024-02-23T00:26:40;3.00;;;0.70;;
16393;SDS011;8306;51.128;4.476;2024-02-23T00:29:06;2.13;;;0.80;;
16393;SDS011;8306;51.128;4.476;2024-02-23T00:31:33;3.90;;;0.90;;
16393;SDS011;8306;51.128;4.476;2024-02-23T00:33:59;3.37;;;0.80;;
16393;SDS011;8306;51.128;4.476;2024-02-23T00:36:26;3.53;;;1.00;;
16393;SDS011;8306;51.128;4.476;2024-02-23T00:38:52;2.57;;;1.07;;
16393;SDS011;8306;51.128;4.476;2024-02-23T00:41:19;3.43;;;1.07;;
16393;SDS011;8306;51.128;4.476;2024-02-23T00:43:46;2.70;;;0.90;;
16393;SDS011;8306;51.128;4.476;2024-02-23T00:46:12;3.57;;;0.80;;
16393;SDS011;8306;51.128;4.476;2024-02-23T00:48:39;2.77;;;1.27;;
16393;SDS011;8306;51.128;4.476;2024-02-23T00:51:05;3.40;;;1.27;;
16393;SDS011;8306;51.128;4.476;2024-02-23T00:53:32;2.87;;;0.90;;
16393;SDS011;8306;51.128;4.476;2024-02-23T00:55:58;3.40;;;0.80;;
16393;SDS011;8306;51.128;4.476;2024-02-23T00:58:25;3.40;;;0.80;;
16393;SDS011;8306;51.128;4.476;2024-02-23T01:00:51;2.43;;;0.70;;
16393;SDS011;8306;51.128;4.476;2024-02-23T01:03:18;3.07;;;0.77;;
16393;SDS011;8306;51.128;4.476;2024-02-23T01:05:44;3.27;;;0.77;;
16393;SDS011;8306;51.128;4.476;2024-02-23T01:08:11;3.73;;;1.10;;
16393;SDS011;8306;51.128;4.476;2024-02-23T01:10:37;1.83;;;0.50;;
16393;SDS011;8306;51.128;4.476;2024-02-23T01:13:04;2.03;;;0.70;;
16393;SDS011;8306;51.128;4.476;2024-02-23T01:15:30;3.63;;;0.83;;
16393;SDS011;8306;51.128;4.476;2024-02-23T01:17:56;2.03;;;0.70;;
16393;SDS011;8306;51.128;4.476;2024-02-23T01:20:23;1.63;;;0.70;;
16393;SDS011;8306;51.128;4.476;2024-02-23T01:22:49;2.67;;;0.70;;
16393;SDS011;8306;51.128;4.476;2024-02-23T01:25:16;2.50;;;0.83;;
16393;SDS011;8306;51.128;4.476;2024-02-23T01:27:42;2.47;;;0.67;;
16393;SDS011;8306;51.128;4.476;2024-02-23T01:30:09;5.03;;;1.30;;
16393;SDS011;8306;51.128;4.476;2024-02-23T01:32:35;3.90;;;0.80;;
16393;SDS011;8306;51.128;4.476;2024-02-23T01:35:02;2.73;;;0.70;;
16393;SDS011;8306;51.128;4.476;2024-02-23T01:37:28;3.07;;;0.80;;
16393;SDS011;8306;51.128;4.476;2024-02-23T01:39:55;1.77;;;0.70;;
16393;SDS011;8306;51.128;4.476;2024-02-23T01:42:21;2.33;;;0.83;;
16393;SDS011;8306;51.128;4.476;2024-02-23T01:44:48;4.80;;;1.10;;
16393;SDS011;8306;51.128;4.476;2024-02-23T01:47:15;3.27;;;0.70;;
16393;SDS011;8306;51.128;4.476;2024-02-23T01:49:41;6.50;;;1.30;;
16393;SDS011;8306;51.128;4.476;2024-02-23T01:52:07;3.37;;;1.00;;
16393;SDS011;8306;51.128;4.476;2024-02-23T01:54:34;2.83;;;1.10;;
16393;SDS011;8306;51.128;4.476;2024-02-23T01:57:00;3.23;;;0.90;;
16393;SDS011;8306;51.128;4.476;2024-02-23T01:59:27;2.20;;;0.70;;
16393;SDS011;8306;51.128;4.476;2024-02-23T02:01:53;2.93;;;0.87;;
16393;SDS011;8306;51.128;4.476;2024-02-23T02:04:20;4.83;;;1.00;;
16393;SDS011;8306;51.128;4.476;2024-02-23T02:06:46;3.00;;;1.07;;
16393;SDS011;8306;51.128;4.476;2024-02-23T02:09:13;2.87;;;0.80;;
16393;SDS011;8306;51.128;4.476;2024-02-23T02:11:48;1.90;;;1.13;;
16393;SDS011;8306;51.128;4.476;2024-02-23T02:14:12;2.63;;;0.80;;
16393;SDS011;8306;51.128;4.476;2024-02-23T02:16:38;4.30;;;0.83;;
16393;SDS011;8306;51.128;4.476;2024-02-23T02:19:05;3.50;;;0.90;;
16393;SDS011;8306;51.128;4.476;2024-02-23T02:21:31;2.37;;;0.67;;
16393;SDS011;8306;51.128;4.476;2024-02-23T02:23:58;1.07;;;0.67;;
16393;SDS011;8306;51.128;4.476;2024-02-23T02:26:24;3.00;;;0.70;;
16393;SDS011;8306;51.128;4.476;2024-02-23T02:28:50;3.43;;;0.70;;
16393;SDS011;8306;51.128;4.476;2024-02-23T02:31:17;2.63;;;0.63;;
16393;SDS011;8306;51.128;4.476;2024-02-23T02:33:43;3.53;;;0.90;;
16393;SDS011;8306;51.128;4.476;2024-02-23T02:36:10;3.87;;;1.20;;
16393;SDS011;8306;51.128;4.476;2024-02-23T02:38:36;3.93;;;0.90;;
16393;SDS011;8306;51.128;4.476;2024-02-23T02:41:03;3.33;;;0.63;;
16393;SDS011;8306;51.128;4.476;2024-02-23T02:43:30;2.90;;;0.80;;
16393;SDS011;8306;51.128;4.476;2024-02-23T02:45:56;4.67;;;1.00;;
16393;SDS011;8306;51.128;4.476;2024-02-23T02:48:23;3.33;;;0.97;;
16393;SDS011;8306;51.128;4.476;2024-02-23T02:50:49;2.47;;;0.70;;
16393;SDS011;8306;51.128;4.476;2024-02-23T02:53:15;11.90;;;1.57;;
16393;SDS011;8306;51.128;4.476;2024-02-23T02:55:42;3.93;;;1.10;;
16393;SDS011;8306;51.128;4.476;2024-02-23T02:58:09;4.10;;;1.10;;
16393;SDS011;8306;51.128;4.476;2024-02-23T03:00:35;4.63;;;1.20;;
16393;SDS011;8306;51.128;4.476;2024-02-23T03:03:01;5.10;;;1.20;;
16393;SDS011;8306;51.128;4.476;2024-02-23T03:05:28;5.83;;;1.07;;
16393;SDS011;8306;51.128;4.476;2024-02-23T03:07:54;3.40;;;0.73;;
16393;SDS011;8306;51.128;4.476;2024-02-23T03:10:21;2.93;;;1.00;;
16393;SDS011;8306;51.128;4.476;2024-02-23T03:12:47;5.30;;;1.77;;
16393;SDS011;8306;51.128;4.476;2024-02-23T03:15:14;3.90;;;0.90;;
16393;SDS011;8306;51.128;4.476;2024-02-23T03:17:40;3.27;;;0.97;;
16393;SDS011;8306;51.128;4.476;2024-02-23T03:20:06;3.07;;;1.10;;
16393;SDS011;8306;51.128;4.476;2024-02-23T03:22:36;4.37;;;1.37;;
16393;SDS011;8306;51.128;4.476;2024-02-23T03:25:03;4.63;;;1.00;;
16393;SDS011;8306;51.128;4.476;2024-02-23T03:27:29;5.50;;;1.23;;
16393;SDS011;8306;51.128;4.476;2024-02-23T03:29:55;2.87;;;1.07;;
16393;SDS011;8306;51.128;4.476;2024-02-23T03:32:22;3.37;;;1.20;;
16393;SDS011;8306;51.128;4.476;2024-02-23T03:34:48;4.77;;;1.20;;
16393;SDS011;8306;51.128;4.476;2024-02-23T03:37:15;4.57;;;1.00;;
16393;SDS011;8306;51.128;4.476;2024-02-23T03:39:41;3.10;;;1.00;;
16393;SDS011;8306;51.128;4.476;2024-02-23T03:42:08;4.10;;;1.13;;
16393;SDS011;8306;51.128;4.476;2024-02-23T03:44:34;3.43;;;1.10;;
16393;SDS011;8306;51.128;4.476;2024-02-23T03:47:01;4.67;;;1.03;;
16393;SDS011;8306;51.128;4.476;2024-02-23T03:49:27;3.83;;;1.00;;
16393;SDS011;8306;51.128;4.476;2024-02-23T03:51:54;5.23;;;0.87;;
16393;SDS011;8306;51.128;4.476;2024-02-23T03:54:20;4.70;;;1.33;;
16393;SDS011;8306;51.128;4.476;2024-02-23T03:56:46;3.60;;;0.80;;
16393;SDS011;8306;51.128;4.476;2024-02-23T03:59:13;2.73;;;0.80;;
16393;SDS011;8306;51.128;4.476;2024-02-23T04:01:39;3.80;;;1.00;;
16393;SDS011;8306;51.128;4.476;2024-02-23T04:04:06;4.37;;;1.23;;
16393;SDS011;8306;51.128;4.476;2024-02-23T04:06:33;4.27;;;0.97;;
16393;SDS011;8306;51.128;4.476;2024-02-23T04:08:59;5.47;;;1.17;;
16393;SDS011;8306;51.128;4.476;2024-02-23T04:11:25;2.93;;;1.07;;
16393;SDS011;8306;51.128;4.476;2024-02-23T04:13:52;7.17;;;1.10;;
16393;SDS011;8306;51.128;4.476;2024-02-23T04:16:21;3.07;;;1.07;;
16393;SDS011;8306;51.128;4.476;2024-02-23T04:18:45;4.07;;;1.20;;
16393;SDS011;8306;51.128;4.476;2024-02-23T04:21:11;3.07;;;1.00;;
16393;SDS011;8306;51.128;4.476;2024-02-23T04:23:38;4.20;;;1.03;;
16393;SDS011;8306;51.128;4.476;2024-02-23T04:26:04;4.77;;;1.23;;
16393;SDS011;8306;51.128;4.476;2024-02-23T04:28:31;3.13;;;1.37;;
16393;SDS011;8306;51.128;4.476;2024-02-23T04:30:57;5.27;;;1.40;;
16393;SDS011;8306;51.128;4.476;2024-02-23T04:33:24;5.33;;;1.50;;
16393;SDS011;8306;51.128;4.476;2024-02-23T04:35:50;7.60;;;1.70;;
16393;SDS011;8306;51.128;4.476;2024-02-23T04:38:17;4.23;;;1.03;;
16393;SDS011;8306;51.128;4.476;2024-02-23T04:40:43;4.77;;;1.83;;
16393;SDS011;8306;51.128;4.476;2024-02-23T04:43:10;3.73;;;1.30;;
16393;SDS011;8306;51.128;4.476;2024-02-23T04:45:36;5.17;;;1.57;;
16393;SDS011;8306;51.128;4.476;2024-02-23T04:48:02;6.77;;;1.50;;
16393;SDS011;8306;51.128;4.476;2024-02-23T04:50:29;6.03;;;1.33;;
16393;SDS011;8306;51.128;4.476;2024-02-23T04:52:55;4.17;;;1.30;;
16393;SDS011;8306;51.128;4.476;2024-02-23T04:55:22;4.43;;;1.10;;
16393;SDS011;8306;51.128;4.476;2024-02-23T04:57:48;3.83;;;1.20;;
16393;SDS011;8306;51.128;4.476;2024-02-23T05:00:15;8.30;;;1.50;;
16393;SDS011;8306;51.128;4.476;2024-02-23T05:02:41;5.70;;;1.20;;
16393;SDS011;8306;51.128;4.476;2024-02-23T05:05:08;3.20;;;1.10;;
16393;SDS011;8306;51.128;4.476;2024-02-23T05:07:34;5.63;;;1.30;;
16393;SDS011;8306;51.128;4.476;2024-02-23T05:10:01;3.43;;;1.13;;
16393;SDS011;8306;51.128;4.476;2024-02-23T05:12:27;4.80;;;1.20;;
16393;SDS011;8306;51.128;4.476;2024-02-23T05:14:54;3.33;;;1.20;;
16393;SDS011;8306;51.128;4.476;2024-02-23T05:17:20;4.63;;;1.17;;
16393;SDS011;8306;51.128;4.476;2024-02-23T05:19:47;3.53;;;1.00;;
16393;SDS011;8306;51.128;4.476;2024-02-23T05:22:13;5.73;;;1.37;;
16393;SDS011;8306;51.128;4.476;2024-02-23T05:24:40;4.50;;;1.30;;
16393;SDS011;8306;51.128;4.476;2024-02-23T05:27:06;4.03;;;1.10;;
16393;SDS011;8306;51.128;4.476;2024-02-23T05:29:33;5.43;;;1.07;;
16393;SDS011;8306;51.128;4.476;2024-02-23T05:31:59;5.57;;;1.20;;
16393;SDS011;8306;51.128;4.476;2024-02-23T05:34:26;3.73;;;1.07;;
16393;SDS011;8306;51.128;4.476;2024-02-23T05:36:52;7.13;;;1.60;;
16393;SDS011;8306;51.128;4.476;2024-02-23T05:39:19;4.97;;;1.27;;
16393;SDS011;8306;51.128;4.476;2024-02-23T05:41:45;3.53;;;1.00;;
16393;SDS011;8306;51.128;4.476;2024-02-23T05:44:11;4.60;;;1.17;;
16393;SDS011;8306;51.128;4.476;2024-02-23T05:46:38;3.93;;;1.20;;
16393;SDS011;8306;51.128;4.476;2024-02-23T05:49:05;4.93;;;1.27;;
16393;SDS011;8306;51.128;4.476;2024-02-23T05:51:31;5.80;;;1.30;;
16393;SDS011;8306;51.128;4.476;2024-02-23T05:53:58;5.97;;;1.03;;
16393;SDS011;8306;51.128;4.476;2024-02-23T05:56:24;5.03;;;1.50;;
16393;SDS011;8306;51.128;4.476;2024-02-23T05:58:50;5.20;;;1.53;;
16393;SDS011;8306;51.128;4.476;2024-02-23T06:01:17;6.83;;;1.93;;
16393;SDS011;8306;51.128;4.476;2024-02-23T06:03:43;3.80;;;1.20;;
16393;SDS011;8306;51.128;4.476;2024-02-23T06:06:10;6.60;;;1.23;;
16393;SDS011;8306;51.128;4.476;2024-02-23T06:08:36;5.60;;;1.60;;
16393;SDS011;8306;51.128;4.476;2024-02-23T06:11:03;4.67;;;1.40;;
16393;SDS011;8306;51.128;4.476;2024-02-23T06:13:30;3.80;;;1.30;;
16393;SDS011;8306;51.128;4.476;2024-02-23T06:15:56;4.50;;;1.20;;
16393;SDS011;8306;51.128;4.476;2024-02-23T06:18:22;5.60;;;1.63;;
16393;SDS011;8306;51.128;4.476;2024-02-23T06:20:49;5.43;;;1.37;;
16393;SDS011;8306;51.128;4.476;2024-02-23T06:23:15;7.37;;;1.50;;
16393;SDS011;8306;51.128;4.476;2024-02-23T06:25:42;8.00;;;1.47;;
16393;SDS011;8306;51.128;4.476;2024-02-23T06:28:08;4.97;;;1.37;;
16393;SDS011;8306;51.128;4.476;2024-02-23T06:30:35;5.33;;;1.77;;
16393;SDS011;8306;51.128;4.476;2024-02-23T06:33:01;6.20;;;1.43;;
16393;SDS011;8306;51.128;4.476;2024-02-23T06:35:27;4.30;;;1.73;;
16393;SDS011;8306;51.128;4.476;2024-02-23T06:37:54;4.87;;;1.60;;
16393;SDS011;8306;51.128;4.476;2024-02-23T06:40:21;4.20;;;1.40;;
16393;SDS011;8306;51.128;4.476;2024-02-23T06:42:47;4.00;;;1.53;;
16393;SDS011;8306;51.128;4.476;2024-02-23T06:45:14;5.00;;;1.70;;
16393;SDS011;8306;51.128;4.476;2024-02-23T06:47:40;4.77;;;1.70;;
16393;SDS011;8306;51.128;4.476;2024-02-23T06:50:07;5.30;;;1.50;;
16393;SDS011;8306;51.128;4.476;2024-02-23T06:52:34;5.67;;;2.03;;
16393;SDS011;8306;51.128;4.476;2024-02-23T06:55:00;4.97;;;1.43;;
16393;SDS011;8306;51.128;4.476;2024-02-23T06:57:26;6.50;;;1.50;;
16393;SDS011;8306;51.128;4.476;2024-02-23T06:59:53;6.80;;;1.77;;
16393;SDS011;8306;51.128;4.476;2024-02-23T07:02:19;5.17;;;1.50;;
16393;SDS011;8306;51.128;4.476;2024-02-23T07:04:46;4.47;;;1.60;;
16393;SDS011;8306;51.128;4.476;2024-02-23T07:07:12;5.50;;;1.90;;
16393;SDS011;8306;51.128;4.476;2024-02-23T07:09:39;5.40;;;1.80;;
16393;SDS011;8306;51.128;4.476;2024-02-23T07:12:05;6.23;;;1.77;;
16393;SDS011;8306;51.128;4.476;2024-02-23T07:14:32;4.27;;;1.83;;
16393;SDS011;8306;51.128;4.476;2024-02-23T07:16:58;7.83;;;1.60;;
16393;SDS011;8306;51.128;4.476;2024-02-23T07:19:25;9.70;;;2.10;;
16393;SDS011;8306;51.128;4.476;2024-02-23T07:21:51;5.53;;;2.80;;
16393;SDS011;8306;51.128;4.476;2024-02-23T07:24:18;7.20;;;2.80;;
16393;SDS011;8306;51.128;4.476;2024-02-23T07:26:44;9.07;;;2.80;;
16393;SDS011;8306;51.128;4.476;2024-02-23T07:29:11;6.47;;;1.97;;
16393;SDS011;8306;51.128;4.476;2024-02-23T07:31:37;7.13;;;1.73;;
16393;SDS011;8306;51.128;4.476;2024-02-23T07:34:04;5.23;;;2.40;;
16393;SDS011;8306;51.128;4.476;2024-02-23T07:36:30;7.60;;;3.90;;
16393;SDS011;8306;51.128;4.476;2024-02-23T07:38:57;5.87;;;2.37;;
16393;SDS011;8306;51.128;4.476;2024-02-23T07:41:23;5.47;;;2.97;;
16393;SDS011;8306;51.128;4.476;2024-02-23T07:43:50;3.77;;;1.97;;
16393;SDS011;8306;51.128;4.476;2024-02-23T07:46:16;7.33;;;1.67;;
16393;SDS011;8306;51.128;4.476;2024-02-23T07:48:43;3.30;;;1.60;;
16393;SDS011;8306;51.128;4.476;2024-02-23T07:51:09;6.27;;;1.67;;
16393;SDS011;8306;51.128;4.476;2024-02-23T07:53:35;4.47;;;1.50;;
16393;SDS011;8306;51.128;4.476;2024-02-23T07:56:02;4.40;;;2.07;;
16393;SDS011;8306;51.128;4.476;2024-02-23T07:58:28;5.43;;;1.90;;
16393;SDS011;8306;51.128;4.476;2024-02-23T08:00:55;5.40;;;1.93;;
16393;SDS011;8306;51.128;4.476;2024-02-23T08:03:21;3.57;;;1.70;;
16393;SDS011;8306;51.128;4.476;2024-02-23T08:05:48;4.37;;;1.53;;
16393;SDS011;8306;51.128;4.476;2024-02-23T08:08:14;6.07;;;1.93;;
16393;SDS011;8306;51.128;4.476;2024-02-23T08:10:41;6.97;;;1.80;;
16393;SDS011;8306;51.128;4.476;2024-02-23T08:13:07;5.63;;;1.73;;
16393;SDS011;8306;51.128;4.476;2024-02-23T08:15:34;3.87;;;1.30;;
16393;SDS011;8306;51.128;4.476;2024-02-23T08:18:00;5.67;;;2.00;;
16393;SDS011;8306;51.128;4.476;2024-02-23T08:20:27;6.20;;;1.60;;
16393;SDS011;8306;51.128;4.476;2024-02-23T08:22:53;3.83;;;1.50;;
16393;SDS011;8306;51.128;4.476;2024-02-23T08:25:20;4.70;;;1.97;;
16393;SDS011;8306;51.128;4.476;2024-02-23T08:27:46;6.20;;;2.73;;
16393;SDS011;8306;51.128;4.476;2024-02-23T08:30:13;5.90;;;2.20;;
16393;SDS011;8306;51.128;4.476;2024-02-23T08:32:40;5.00;;;1.70;;
16393;SDS011;8306;51.128;4.476;2024-02-23T08:35:06;6.47;;;1.70;;
16393;SDS011;8306;51.128;4.476;2024-02-23T08:37:32;6.03;;;2.10;;
16393;SDS011;8306;51.128;4.476;2024-02-23T08:39:59;6.20;;;2.30;;
16393;SDS011;8306;51.128;4.476;2024-02-23T08:42:26;5.27;;;1.87;;
16393;SDS011;8306;51.128;4.476;2024-02-23T08:44:52;5.77;;;1.90;;
16393;SDS011;8306;51.128;4.476;2024-02-23T08:47:18;5.73;;;1.90;;
16393;SDS011;8306;51.128;4.476;2024-02-23T08:49:45;4.33;;;3.00;;
16393;SDS011;8306;51.128;4.476;2024-02-23T08:52:11;4.37;;;2.07;;
16393;SDS011;8306;51.128;4.476;2024-02-23T08:54:38;4.27;;;1.57;;
16393;SDS011;8306;51.128;4.476;2024-02-23T08:57:04;4.27;;;1.77;;
16393;SDS011;8306;51.128;4.476;2024-02-23T08:59:31;5.03;;;1.90;;
16393;SDS011;8306;51.128;4.476;2024-02-23T09:01:57;4.30;;;1.90;;
16393;SDS011;8306;51.128;4.476;2024-02-23T09:04:24;4.00;;;1.63;;
16393;SDS011;8306;51.128;4.476;2024-02-23T09:06:50;4.33;;;1.80;;
16393;SDS011;8306;51.128;4.476;2024-02-23T09:09:16;5.17;;;2.27;;
16393;SDS011;8306;51.128;4.476;2024-02-23T09:11:43;5.40;;;1.77;;
16393;SDS011;8306;51.128;4.476;2024-02-23T09:14:09;5.93;;;2.10;;
16393;SDS011;8306;51.128;4.476;2024-02-23T09:16:36;6.07;;;2.10;;
16393;SDS011;8306;51.128;4.476;2024-02-23T09:19:02;4.27;;;1.80;;
16393;SDS011;8306;51.128;4.476;2024-02-23T09:21:29;4.43;;;1.70;;
16393;SDS011;8306;51.128;4.476;2024-02-23T09:23:55;3.50;;;1.40;;
16393;SDS011;8306;51.128;4.476;2024-02-23T09:26:22;3.67;;;1.67;;
16393;SDS011;8306;51.128;4.476;2024-02-23T09:28:48;3.60;;;1.77;;
16393;SDS011;8306;51.128;4.476;2024-02-23T09:31:15;3.83;;;1.80;;
16393;SDS011;8306;51.128;4.476;2024-02-23T09:33:41;4.67;;;1.93;;
16393;SDS011;8306;51.128;4.476;2024-02-23T09:36:08;3.53;;;1.80;;
16393;SDS011;8306;51.128;4.476;2024-02-23T09:38:35;3.63;;;2.07;;
16393;SDS011;8306;51.128;4.476;2024-02-23T09:41:01;2.80;;;1.40;;
16393;SDS011;8306;51.128;4.476;2024-02-23T09:43:31;3.97;;;1.60;;
16393;SDS011;8306;51.128;4.476;2024-02-23T09:45:57;7.60;;;1.70;;
16393;SDS011;8306;51.128;4.476;2024-02-23T09:48:24;3.53;;;1.53;;
16393;SDS011;8306;51.128;4.476;2024-02-23T09:50:51;3.33;;;1.60;;
16393;SDS011;8306;51.128;4.476;2024-02-23T09:53:17;4.40;;;1.77;;
16393;SDS011;8306;51.128;4.476;2024-02-23T09:55:43;5.60;;;1.83;;
16393;SDS011;8306;51.128;4.476;2024-02-23T09:58:09;5.73;;;1.43;;
16393;SDS011;8306;51.128;4.476;2024-02-23T10:00:36;3.77;;;1.30;;
16393;SDS011;8306;51.128;4.476;2024-02-23T10:03:02;3.97;;;1.60;;
16393;SDS011;8306;51.128;4.476;2024-02-23T10:05:29;3.07;;;1.30;;
16393;SDS011;8306;51.128;4.476;2024-02-23T10:07:55;4.10;;;1.30;;
16393;SDS011;8306;51.128;4.476;2024-02-23T10:10:34;5.10;;;1.30;;
16393;SDS011;8306;51.128;4.476;2024-02-23T10:13:01;4.43;;;1.70;;
16393;SDS011;8306;51.128;4.476;2024-02-23T10:15:30;5.40;;;1.30;;
16393;SDS011;8306;51.128;4.476;2024-02-23T10:17:57;5.63;;;1.20;;
16393;SDS011;8306;51.128;4.476;2024-02-23T10:20:23;6.87;;;1.40;;
16393;SDS011;8306;51.128;4.476;2024-02-23T10:22:50;4.90;;;1.30;;
16393;SDS011;8306;51.128;4.476;2024-02-23T10:25:17;3.00;;;1.10;;
16393;SDS011;8306;51.128;4.476;2024-02-23T10:27:43;3.57;;;1.17;;
16393;SDS011;8306;51.128;4.476;2024-02-23T10:30:09;3.47;;;1.00;;
16393;SDS011;8306;51.128;4.476;2024-02-23T10:32:36;4.67;;;1.50;;
16393;SDS011;8306;51.128;4.476;2024-02-23T10:35:02;3.23;;;0.97;;
16393;SDS011;8306;51.128;4.476;2024-02-23T10:37:29;3.53;;;1.60;;
16393;SDS011;8306;51.128;4.476;2024-02-23T10:39:56;2.97;;;1.00;;
16393;SDS011;8306;51.128;4.476;2024-02-23T10:42:22;1.93;;;0.90;;
16393;SDS011;8306;51.128;4.476;2024-02-23T10:44:48;1.97;;;0.87;;
16393;SDS011;8306;51.128;4.476;2024-02-23T10:47:14;3.40;;;1.10;;
16393;SDS011;8306;51.128;4.476;2024-02-23T10:49:41;4.17;;;1.27;;
16393;SDS011;8306;51.128;4.476;2024-02-23T10:52:08;4.07;;;0.93;;
16393;SDS011;8306;51.128;4.476;2024-02-23T10:54:34;3.50;;;1.43;;
16393;SDS011;8306;51.128;4.476;2024-02-23T10:57:00;2.90;;;1.00;;
16393;SDS011;8306;51.128;4.476;2024-02-23T10:59:27;3.70;;;1.03;;
16393;SDS011;8306;51.128;4.476;2024-02-23T11:01:54;3.83;;;1.43;;
16393;SDS011;8306;51.128;4.476;2024-02-23T11:04:20;3.27;;;1.23;;
16393;SDS011;8306;51.128;4.476;2024-02-23T11:06:52;2.80;;;1.10;;
16393;SDS011;8306;51.128;4.476;2024-02-23T11:09:22;3.30;;;1.40;;
16393;SDS011;8306;51.128;4.476;2024-02-23T11:11:52;3.83;;;1.27;;
16393;SDS011;8306;51.128;4.476;2024-02-23T11:14:17;3.60;;;1.10;;
16393;SDS011;8306;51.128;4.476;2024-02-23T11:16:43;3.80;;;1.00;;
16393;SDS011;8306;51.128;4.476;2024-02-23T11:19:10;3.77;;;1.30;;
16393;SDS011;8306;51.128;4.476;2024-02-23T11:21:37;2.97;;;1.10;;
16393;SDS011;8306;51.128;4.476;2024-02-23T11:24:03;3.97;;;1.23;;
16393;SDS011;8306;51.128;4.476;2024-02-23T11:26:29;2.90;;;1.13;;
16393;SDS011;8306;51.128;4.476;2024-02-23T11:28:56;3.53;;;1.07;;
16393;SDS011;8306;51.128;4.476;2024-02-23T11:31:23;3.53;;;1.23;;
16393;SDS011;8306;51.128;4.476;2024-02-23T11:33:52;2.93;;;1.10;;
16393;SDS011;8306;51.128;4.476;2024-02-23T11:36:22;2.97;;;1.10;;
16393;SDS011;8306;51.128;4.476;2024-02-23T11:38:54;3.03;;;1.00;;
16393;SDS011;8306;51.128;4.476;2024-02-23T11:41:23;7.93;;;1.33;;
16393;SDS011;8306;51.128;4.476;2024-02-23T11:43:53;2.60;;;0.97;;
16393;SDS011;8306;51.128;4.476;2024-02-23T11:46:19;3.20;;;1.10;;
16393;SDS011;8306;51.128;4.476;2024-02-23T11:48:45;2.30;;;1.00;;
16393;SDS011;8306;51.128;4.476;2024-02-23T11:51:15;4.03;;;1.17;;
16393;SDS011;8306;51.128;4.476;2024-02-23T11:53:42;3.50;;;1.03;;
16393;SDS011;8306;51.128;4.476;2024-02-23T11:56:08;3.07;;;1.27;;
16393;SDS011;8306;51.128;4.476;2024-02-23T11:58:34;3.10;;;1.13;;
16393;SDS011;8306;51.128;4.476;2024-02-23T12:01:02;2.67;;;0.90;;
16393;SDS011;8306;51.128;4.476;2024-02-23T12:03:28;4.90;;;1.30;;
16393;SDS011;8306;51.128;4.476;2024-02-23T12:05:57;2.10;;;0.70;;
16393;SDS011;8306;51.128;4.476;2024-02-23T12:08:23;2.00;;;1.00;;
16393;SDS011;8306;51.128;4.476;2024-02-23T12:10:49;3.30;;;1.17;;
16393;SDS011;8306;51.128;4.476;2024-02-23T12:13:16;3.17;;;1.03;;
16393;SDS011;8306;51.128;4.476;2024-02-23T12:15:42;2.80;;;1.17;;
16393;SDS011;8306;51.128;4.476;2024-02-23T12:18:10;3.83;;;0.97;;
16393;SDS011;8306;51.128;4.476;2024-02-23T12:20:35;5.00;;;1.30;;
16393;SDS011;8306;51.128;4.476;2024-02-23T12:23:02;3.50;;;1.10;;
16393;SDS011;8306;51.128;4.476;2024-02-23T12:25:28;1.77;;;1.10;;
16393;SDS011;8306;51.128;4.476;2024-02-23T12:27:55;4.97;;;1.07;;
16393;SDS011;8306;51.128;4.476;2024-02-23T12:30:21;2.73;;;0.90;;
16393;SDS011;8306;51.128;4.476;2024-02-23T12:32:48;4.13;;;2.13;;
16393;SDS011;8306;51.128;4.476;2024-02-23T12:35:14;4.40;;;1.83;;
16393;SDS011;8306;51.128;4.476;2024-02-23T12:37:41;2.87;;;1.10;;
16393;SDS011;8306;51.128;4.476;2024-02-23T12:40:07;4.27;;;1.47;;
16393;SDS011;8306;51.128;4.476;2024-02-23T12:42:34;3.07;;;1.23;;
16393;SDS011;8306;51.128;4.476;2024-02-23T12:45:00;4.07;;;1.10;;
16393;SDS011;8306;51.128;4.476;2024-02-23T12:47:27;3.80;;;0.83;;
16393;SDS011;8306;51.128;4.476;2024-02-23T12:49:53;1.73;;;0.90;;
16393;SDS011;8306;51.128;4.476;2024-02-23T12:52:20;3.10;;;0.90;;
16393;SDS011;8306;51.128;4.476;2024-02-23T12:54:46;3.00;;;1.10;;
16393;SDS011;8306;51.128;4.476;2024-02-23T12:57:13;3.30;;;0.90;;
16393;SDS011;8306;51.128;4.476;2024-02-23T12:59:39;1.77;;;0.73;;
16393;SDS011;8306;51.128;4.476;2024-02-23T13:02:06;2.80;;;0.73;;
16393;SDS011;8306;51.128;4.476;2024-02-23T13:04:32;4.50;;;0.70;;
16393;SDS011;8306;51.128;4.476;2024-02-23T13:06:58;3.73;;;1.17;;
16393;SDS011;8306;51.128;4.476;2024-02-23T13:09:25;2.97;;;0.90;;
16393;SDS011;8306;51.128;4.476;2024-02-23T13:11:51;2.60;;;0.73;;
16393;SDS011;8306;51.128;4.476;2024-02-23T13:14:18;3.57;;;1.20;;
16393;SDS011;8306;51.128;4.476;2024-02-23T13:16:44;1.93;;;0.80;;
16393;SDS011;8306;51.128;4.476;2024-02-23T13:19:11;3.43;;;1.03;;
16393;SDS011;8306;51.128;4.476;2024-02-23T13:21:37;2.73;;;0.73;;
16393;SDS011;8306;51.128;4.476;2024-02-23T13:24:04;4.40;;;0.77;;
16393;SDS011;8306;51.128;4.476;2024-02-23T13:26:30;3.83;;;1.00;;
16393;SDS011;8306;51.128;4.476;2024-02-23T13:28:57;3.50;;;1.10;;
16393;SDS011;8306;51.128;4.476;2024-02-23T13:31:23;3.80;;;1.00;;
16393;SDS011;8306;51.128;4.476;2024-02-23T13:33:50;5.00;;;0.80;;
16393;SDS011;8306;51.128;4.476;2024-02-23T13:36:16;3.33;;;1.00;;
16393;SDS011;8306;51.128;4.476;2024-02-23T13:38:43;4.17;;;0.80;;
16393;SDS011;8306;51.128;4.476;2024-02-23T13:41:09;5.07;;;0.97;;
16393;SDS011;8306;51.128;4.476;2024-02-23T13:43:36;3.07;;;0.93;;
16393;SDS011;8306;51.128;4.476;2024-02-23T13:46:03;3.97;;;0.73;;
16393;SDS011;8306;51.128;4.476;2024-02-23T13:48:29;3.73;;;0.93;;
16393;SDS011;8306;51.128;4.476;2024-02-23T13:50:56;4.23;;;1.10;;
16393;SDS011;8306;51.128;4.476;2024-02-23T13:53:22;2.03;;;0.80;;
16393;SDS011;8306;51.128;4.476;2024-02-23T13:55:49;3.50;;;0.90;;
16393;SDS011;8306;51.128;4.476;2024-02-23T13:58:15;2.50;;;1.00;;
16393;SDS011;8306;51.128;4.476;2024-02-23T14:00:41;3.40;;;0.90;;
16393;SDS011;8306;51.128;4.476;2024-02-23T14:03:08;2.90;;;1.20;;
16393;SDS011;8306;51.128;4.476;2024-02-23T14:05:34;3.90;;;0.97;;
16393;SDS011;8306;51.128;4.476;2024-02-23T14:08:01;2.47;;;0.80;;
16393;SDS011;8306;51.128;4.476;2024-02-23T14:10:27;2.30;;;1.00;;
16393;SDS011;8306;51.128;4.476;2024-02-23T14:12:54;3.53;;;0.90;;
16393;SDS011;8306;51.128;4.476;2024-02-23T14:15:20;3.67;;;1.17;;
16393;SDS011;8306;51.128;4.476;2024-02-23T14:17:47;2.90;;;0.90;;
16393;SDS011;8306;51.128;4.476;2024-02-23T14:20:13;3.40;;;1.10;;
16393;SDS011;8306;51.128;4.476;2024-02-23T14:22:40;1.83;;;1.07;;
16393;SDS011;8306;51.128;4.476;2024-02-23T14:25:06;4.60;;;1.10;;
16393;SDS011;8306;51.128;4.476;2024-02-23T14:27:33;2.70;;;1.03;;
16393;SDS011;8306;51.128;4.476;2024-02-23T14:29:59;3.53;;;1.27;;
16393;SDS011;8306;51.128;4.476;2024-02-23T14:32:26;2.67;;;0.93;;
16393;SDS011;8306;51.128;4.476;2024-02-23T14:34:52;4.87;;;1.00;;
16393;SDS011;8306;51.128;4.476;2024-02-23T14:37:19;3.03;;;0.97;;
16393;SDS011;8306;51.128;4.476;2024-02-23T14:39:45;2.43;;;0.80;;
16393;SDS011;8306;51.128;4.476;2024-02-23T14:42:12;2.73;;;0.87;;
16393;SDS011;8306;51.128;4.476;2024-02-23T14:44:38;7.03;;;1.20;;
16393;SDS011;8306;51.128;4.476;2024-02-23T14:47:05;5.33;;;1.50;;
16393;SDS011;8306;51.128;4.476;2024-02-23T14:49:31;2.47;;;1.13;;
16393;SDS011;8306;51.128;4.476;2024-02-23T14:51:58;3.30;;;1.20;;
16393;SDS011;8306;51.128;4.476;2024-02-23T14:54:24;4.73;;;1.43;;
16393;SDS011;8306;51.128;4.476;2024-02-23T14:56:51;3.07;;;1.77;;